sensor_id;sensor_type;location;lat;lon;timestamp;P1;durP1;ratioP1;P2;durP2;ratioP2
64099;SDS011;50385;61.766;38.054;2023-07-13T00:03:22;7.13;;;2.08;;
64099;SDS011;50385;61.766;38.054;2023-07-13T00:06:11;2.67;;;2.15;;
64099;SDS011;50385;61.766;38.054;2023-07-13T00:08:39;6.28;;;2.47;;
64099;SDS011;50385;61.766;38.054;2023-07-13T00:11:10;6.80;;;2.72;;
64099;SDS011;50385;61.766;38.054;2023-07-13T00:15:34;5.30;;;2.30;;
64099;SDS011;50385;61.766;38.054;2023-07-13T00:19:42;3.60;;;2.45;;
64099;SDS011;50385;61.766;38.054;2023-07-13T00:23:22;5.30;;;2.28;;
64099;SDS011;50385;61.766;38.054;2023-07-13T00:26:43;2.58;;;2.25;;
64099;SDS011;50385;61.766;38.054;2023-07-13T00:29:33;3.47;;;2.30;;
64099;SDS011;50385;61.766;38.054;2023-07-13T00:33:35;2.28;;;1.95;;
64099;SDS011;50385;61.766;38.054;2023-07-13T00:37:47;3.28;;;2.30;;
64099;SDS011;50385;61.766;38.054;2023-07-13T00:40:37;2.95;;;2.03;;
64099;SDS011;50385;61.766;38.054;2023-07-13T00:43:48;9.13;;;2.10;;
64099;SDS011;50385;61.766;38.054;2023-07-13T00:46:28;4.70;;;1.90;;
64099;SDS011;50385;61.766;38.054;2023-07-13T00:49:27;5.75;;;2.22;;
64099;SDS011;50385;61.766;38.054;2023-07-13T00:52:37;5.30;;;2.30;;
64099;SDS011;50385;61.766;38.054;2023-07-13T00:55:07;6.50;;;2.35;;
64099;SDS011;50385;61.766;38.054;2023-07-13T00:57:38;2.25;;;1.90;;
64099;SDS011;50385;61.766;38.054;2023-07-13T01:00:09;2.80;;;2.17;;
64099;SDS011;50385;61.766;38.054;2023-07-13T01:03:46;4.20;;;2.50;;
64099;SDS011;50385;61.766;38.054;2023-07-13T01:06:19;8.38;;;2.20;;
64099;SDS011;50385;61.766;38.054;2023-07-13T01:09:10;3.50;;;2.33;;
64099;SDS011;50385;61.766;38.054;2023-07-13T01:11:40;3.80;;;2.22;;
64099;SDS011;50385;61.766;38.054;2023-07-13T01:14:12;5.00;;;2.42;;
64099;SDS011;50385;61.766;38.054;2023-07-13T01:16:44;4.68;;;2.47;;
64099;SDS011;50385;61.766;38.054;2023-07-13T01:19:32;12.15;;;2.03;;
64099;SDS011;50385;61.766;38.054;2023-07-13T01:22:06;2.85;;;1.95;;
64099;SDS011;50385;61.766;38.054;2023-07-13T01:24:47;3.10;;;2.00;;
64099;SDS011;50385;61.766;38.054;2023-07-13T01:27:19;3.45;;;1.90;;
64099;SDS011;50385;61.766;38.054;2023-07-13T01:29:55;3.97;;;2.25;;
64099;SDS011;50385;61.766;38.054;2023-07-13T01:32:36;4.38;;;2.38;;
64099;SDS011;50385;61.766;38.054;2023-07-13T01:35:07;3.60;;;2.28;;
64099;SDS011;50385;61.766;38.054;2023-07-13T01:37:55;7.22;;;3.05;;
64099;SDS011;50385;61.766;38.054;2023-07-13T01:41:08;3.17;;;2.10;;
64099;SDS011;50385;61.766;38.054;2023-07-13T01:44:06;2.97;;;2.42;;
64099;SDS011;50385;61.766;38.054;2023-07-13T01:46:36;4.32;;;2.40;;
64099;SDS011;50385;61.766;38.054;2023-07-13T01:49:09;3.13;;;2.20;;
64099;SDS011;50385;61.766;38.054;2023-07-13T01:52:24;7.20;;;2.33;;
64099;SDS011;50385;61.766;38.054;2023-07-13T01:55:26;5.57;;;2.70;;
64099;SDS011;50385;61.766;38.054;2023-07-13T01:57:59;7.57;;;2.40;;
64099;SDS011;50385;61.766;38.054;2023-07-13T02:01:02;5.50;;;2.35;;
64099;SDS011;50385;61.766;38.054;2023-07-13T02:03:56;2.20;;;2.00;;
64099;SDS011;50385;61.766;38.054;2023-07-13T02:07:07;3.65;;;2.55;;
64099;SDS011;50385;61.766;38.054;2023-07-13T02:10:22;5.53;;;2.35;;
64099;SDS011;50385;61.766;38.054;2023-07-13T02:14:03;2.85;;;1.98;;
64099;SDS011;50385;61.766;38.054;2023-07-13T02:18:03;6.95;;;2.08;;
64099;SDS011;50385;61.766;38.054;2023-07-13T02:21:35;2.03;;;1.83;;
64099;SDS011;50385;61.766;38.054;2023-07-13T02:24:38;5.78;;;2.30;;
64099;SDS011;50385;61.766;38.054;2023-07-13T02:27:08;10.63;;;2.78;;
64099;SDS011;50385;61.766;38.054;2023-07-13T02:29:45;7.38;;;2.08;;
64099;SDS011;50385;61.766;38.054;2023-07-13T02:32:56;2.58;;;2.20;;
64099;SDS011;50385;61.766;38.054;2023-07-13T02:36:05;2.92;;;2.58;;
64099;SDS011;50385;61.766;38.054;2023-07-13T02:38:37;3.08;;;2.00;;
64099;SDS011;50385;61.766;38.054;2023-07-13T02:41:40;4.38;;;2.35;;
64099;SDS011;50385;61.766;38.054;2023-07-13T02:44:27;2.42;;;2.22;;
64099;SDS011;50385;61.766;38.054;2023-07-13T02:47:27;2.50;;;2.30;;
64099;SDS011;50385;61.766;38.054;2023-07-13T02:51:24;5.30;;;2.17;;
64099;SDS011;50385;61.766;38.054;2023-07-13T02:55:04;4.40;;;2.33;;
64099;SDS011;50385;61.766;38.054;2023-07-13T02:58:52;4.72;;;2.25;;
64099;SDS011;50385;61.766;38.054;2023-07-13T03:01:39;3.00;;;1.98;;
64099;SDS011;50385;61.766;38.054;2023-07-13T03:05:19;5.55;;;2.63;;
64099;SDS011;50385;61.766;38.054;2023-07-13T03:08:33;5.30;;;2.60;;
64099;SDS011;50385;61.766;38.054;2023-07-13T03:11:59;5.45;;;2.28;;
64099;SDS011;50385;61.766;38.054;2023-07-13T03:15:17;3.78;;;2.47;;
64099;SDS011;50385;61.766;38.054;2023-07-13T03:19:10;4.90;;;2.30;;
64099;SDS011;50385;61.766;38.054;2023-07-13T03:22:09;5.32;;;2.40;;
64099;SDS011;50385;61.766;38.054;2023-07-13T03:24:42;6.50;;;2.58;;
64099;SDS011;50385;61.766;38.054;2023-07-13T03:28:54;2.85;;;2.40;;
64099;SDS011;50385;61.766;38.054;2023-07-13T03:33:10;4.00;;;2.20;;
64099;SDS011;50385;61.766;38.054;2023-07-13T03:36:38;4.50;;;2.58;;
64099;SDS011;50385;61.766;38.054;2023-07-13T03:45:22;8.27;;;2.25;;
64099;SDS011;50385;61.766;38.054;2023-07-13T03:53:44;4.45;;;2.58;;
64099;SDS011;50385;61.766;38.054;2023-07-13T04:01:37;3.65;;;2.08;;
64099;SDS011;50385;61.766;38.054;2023-07-13T04:06:04;2.58;;;2.30;;
64099;SDS011;50385;61.766;38.054;2023-07-13T04:09:54;3.60;;;2.38;;
64099;SDS011;50385;61.766;38.054;2023-07-13T04:13:05;6.43;;;2.20;;
64099;SDS011;50385;61.766;38.054;2023-07-13T04:17:41;4.00;;;2.33;;
64099;SDS011;50385;61.766;38.054;2023-07-13T04:21:21;11.57;;;2.63;;
64099;SDS011;50385;61.766;38.054;2023-07-13T04:25:01;6.30;;;2.72;;
64099;SDS011;50385;61.766;38.054;2023-07-13T04:27:57;2.50;;;2.30;;
64099;SDS011;50385;61.766;38.054;2023-07-13T04:35:43;10.98;;;2.47;;
64099;SDS011;50385;61.766;38.054;2023-07-13T04:38:44;3.20;;;2.35;;
64099;SDS011;50385;61.766;38.054;2023-07-13T04:41:41;4.90;;;2.40;;
64099;SDS011;50385;61.766;38.054;2023-07-13T04:44:14;6.65;;;2.70;;
64099;SDS011;50385;61.766;38.054;2023-07-13T04:46:44;3.47;;;2.60;;
64099;SDS011;50385;61.766;38.054;2023-07-13T04:49:14;4.55;;;2.88;;
64099;SDS011;50385;61.766;38.054;2023-07-13T04:51:42;3.47;;;2.50;;
64099;SDS011;50385;61.766;38.054;2023-07-13T04:54:09;3.60;;;2.45;;
64099;SDS011;50385;61.766;38.054;2023-07-13T04:56:36;9.57;;;2.97;;
64099;SDS011;50385;61.766;38.054;2023-07-13T04:59:08;4.20;;;2.60;;
64099;SDS011;50385;61.766;38.054;2023-07-13T05:01:36;3.70;;;2.53;;
64099;SDS011;50385;61.766;38.054;2023-07-13T05:04:09;3.13;;;2.55;;
64099;SDS011;50385;61.766;38.054;2023-07-13T05:06:37;3.40;;;2.35;;
64099;SDS011;50385;61.766;38.054;2023-07-13T05:09:04;4.95;;;2.50;;
64099;SDS011;50385;61.766;38.054;2023-07-13T05:11:32;4.05;;;2.22;;
64099;SDS011;50385;61.766;38.054;2023-07-13T05:14:00;3.50;;;2.47;;
64099;SDS011;50385;61.766;38.054;2023-07-13T05:16:27;3.13;;;2.30;;
64099;SDS011;50385;61.766;38.054;2023-07-13T05:18:54;5.00;;;2.33;;
64099;SDS011;50385;61.766;38.054;2023-07-13T05:21:22;3.13;;;2.42;;
64099;SDS011;50385;61.766;38.054;2023-07-13T05:23:53;2.80;;;2.53;;
64099;SDS011;50385;61.766;38.054;2023-07-13T05:26:22;7.00;;;2.58;;
64099;SDS011;50385;61.766;38.054;2023-07-13T05:28:51;2.70;;;2.28;;
64099;SDS011;50385;61.766;38.054;2023-07-13T05:31:24;4.68;;;2.75;;
64099;SDS011;50385;61.766;38.054;2023-07-13T05:34:14;8.95;;;3.00;;
64099;SDS011;50385;61.766;38.054;2023-07-13T05:37:39;2.83;;;2.50;;
64099;SDS011;50385;61.766;38.054;2023-07-13T05:40:14;3.63;;;2.92;;
64099;SDS011;50385;61.766;38.054;2023-07-13T05:42:42;3.03;;;2.50;;
64099;SDS011;50385;61.766;38.054;2023-07-13T05:45:09;3.97;;;2.97;;
64099;SDS011;50385;61.766;38.054;2023-07-13T05:47:37;4.80;;;2.33;;
64099;SDS011;50385;61.766;38.054;2023-07-13T05:50:04;8.57;;;2.95;;
64099;SDS011;50385;61.766;38.054;2023-07-13T05:52:32;2.97;;;2.70;;
64099;SDS011;50385;61.766;38.054;2023-07-13T05:55:07;4.10;;;2.63;;
64099;SDS011;50385;61.766;38.054;2023-07-13T06:07:45;2.88;;;2.53;;
64099;SDS011;50385;61.766;38.054;2023-07-13T07:04:27;5.95;;;2.50;;
64099;SDS011;50385;61.766;38.054;2023-07-13T07:17:25;4.18;;;2.78;;
64099;SDS011;50385;61.766;38.054;2023-07-13T07:39:56;4.72;;;3.00;;
64099;SDS011;50385;61.766;38.054;2023-07-13T07:55:05;3.78;;;2.25;;
64099;SDS011;50385;61.766;38.054;2023-07-13T07:58:14;5.30;;;3.08;;
64099;SDS011;50385;61.766;38.054;2023-07-13T08:16:07;6.63;;;3.03;;
64099;SDS011;50385;61.766;38.054;2023-07-13T08:18:34;5.55;;;3.50;;
64099;SDS011;50385;61.766;38.054;2023-07-13T08:21:05;9.35;;;3.63;;
64099;SDS011;50385;61.766;38.054;2023-07-13T08:23:33;6.78;;;3.47;;
64099;SDS011;50385;61.766;38.054;2023-07-13T08:26:01;3.33;;;2.85;;
64099;SDS011;50385;61.766;38.054;2023-07-13T08:28:30;12.48;;;3.72;;
64099;SDS011;50385;61.766;38.054;2023-07-13T08:31:06;8.25;;;3.67;;
64099;SDS011;50385;61.766;38.054;2023-07-13T08:45:17;4.82;;;3.55;;
64099;SDS011;50385;61.766;38.054;2023-07-13T08:51:00;5.28;;;3.72;;
64099;SDS011;50385;61.766;38.054;2023-07-13T08:53:34;9.20;;;4.13;;
64099;SDS011;50385;61.766;38.054;2023-07-13T08:56:09;9.45;;;4.28;;
64099;SDS011;50385;61.766;38.054;2023-07-13T08:59:13;6.03;;;4.10;;
64099;SDS011;50385;61.766;38.054;2023-07-13T09:02:51;21.85;;;4.38;;
64099;SDS011;50385;61.766;38.054;2023-07-13T09:04:50;8.73;;;3.80;;
64099;SDS011;50385;61.766;38.054;2023-07-13T09:07:29;8.73;;;3.80;;
64099;SDS011;50385;61.766;38.054;2023-07-13T09:10:14;7.47;;;3.88;;
64099;SDS011;50385;61.766;38.054;2023-07-13T09:15:35;4.82;;;3.75;;
64099;SDS011;50385;61.766;38.054;2023-07-13T09:23:30;6.90;;;4.22;;
64099;SDS011;50385;61.766;38.054;2023-07-13T09:26:02;4.00;;;3.60;;
64099;SDS011;50385;61.766;38.054;2023-07-13T09:28:39;6.07;;;4.05;;
64099;SDS011;50385;61.766;38.054;2023-07-13T09:31:11;7.53;;;4.18;;
64099;SDS011;50385;61.766;38.054;2023-07-13T09:33:40;5.95;;;4.28;;
64099;SDS011;50385;61.766;38.054;2023-07-13T09:38:48;11.18;;;3.72;;
64099;SDS011;50385;61.766;38.054;2023-07-13T09:44:08;13.57;;;4.40;;
64099;SDS011;50385;61.766;38.054;2023-07-13T09:46:37;7.10;;;3.78;;
64099;SDS011;50385;61.766;38.054;2023-07-13T09:49:08;5.32;;;4.10;;
64099;SDS011;50385;61.766;38.054;2023-07-13T09:51:42;6.60;;;4.07;;
64099;SDS011;50385;61.766;38.054;2023-07-13T09:54:20;12.85;;;3.95;;
64099;SDS011;50385;61.766;38.054;2023-07-13T10:00:06;11.73;;;4.43;;
64099;SDS011;50385;61.766;38.054;2023-07-13T10:06:35;4.78;;;3.85;;
64099;SDS011;50385;61.766;38.054;2023-07-13T10:09:07;7.47;;;4.10;;
64099;SDS011;50385;61.766;38.054;2023-07-13T10:12:01;6.45;;;3.38;;
64099;SDS011;50385;61.766;38.054;2023-07-13T10:14:28;7.07;;;3.78;;
64099;SDS011;50385;61.766;38.054;2023-07-13T10:16:59;4.90;;;3.80;;
64099;SDS011;50385;61.766;38.054;2023-07-13T10:26:56;6.97;;;3.92;;
64099;SDS011;50385;61.766;38.054;2023-07-13T10:30:20;8.68;;;4.20;;
64099;SDS011;50385;61.766;38.054;2023-07-13T10:32:51;6.05;;;4.25;;
64099;SDS011;50385;61.766;38.054;2023-07-13T10:35:19;6.90;;;3.70;;
64099;SDS011;50385;61.766;38.054;2023-07-13T10:38:10;7.28;;;3.67;;
64099;SDS011;50385;61.766;38.054;2023-07-13T10:43:59;14.07;;;3.78;;
64099;SDS011;50385;61.766;38.054;2023-07-13T10:46:37;26.33;;;3.67;;
64099;SDS011;50385;61.766;38.054;2023-07-13T10:49:06;10.63;;;3.30;;
64099;SDS011;50385;61.766;38.054;2023-07-13T10:51:34;8.75;;;3.05;;
64099;SDS011;50385;61.766;38.054;2023-07-13T10:59:47;13.02;;;3.80;;
64099;SDS011;50385;61.766;38.054;2023-07-13T11:02:36;5.28;;;3.50;;
64099;SDS011;50385;61.766;38.054;2023-07-13T11:05:37;8.75;;;3.90;;
64099;SDS011;50385;61.766;38.054;2023-07-13T11:10:55;12.05;;;3.35;;
64099;SDS011;50385;61.766;38.054;2023-07-13T11:18:45;7.18;;;3.65;;
64099;SDS011;50385;61.766;38.054;2023-07-13T11:21:15;4.88;;;3.85;;
64099;SDS011;50385;61.766;38.054;2023-07-13T11:24:47;7.72;;;3.60;;
64099;SDS011;50385;61.766;38.054;2023-07-13T11:29:25;7.73;;;3.23;;
64099;SDS011;50385;61.766;38.054;2023-07-13T11:32:21;4.68;;;3.20;;
64099;SDS011;50385;61.766;38.054;2023-07-13T11:34:53;5.65;;;3.38;;
64099;SDS011;50385;61.766;38.054;2023-07-13T11:37:20;8.00;;;4.13;;
64099;SDS011;50385;61.766;38.054;2023-07-13T11:39:48;6.38;;;3.50;;
64099;SDS011;50385;61.766;38.054;2023-07-13T11:42:20;7.45;;;3.70;;
64099;SDS011;50385;61.766;38.054;2023-07-13T11:44:52;7.47;;;4.10;;
64099;SDS011;50385;61.766;38.054;2023-07-13T11:47:24;6.10;;;3.25;;
64099;SDS011;50385;61.766;38.054;2023-07-13T11:49:53;7.20;;;3.58;;
64099;SDS011;50385;61.766;38.054;2023-07-13T11:52:37;5.80;;;3.40;;
64099;SDS011;50385;61.766;38.054;2023-07-13T11:55:14;6.05;;;3.45;;
64099;SDS011;50385;61.766;38.054;2023-07-13T11:58:05;7.25;;;3.22;;
64099;SDS011;50385;61.766;38.054;2023-07-13T12:00:33;8.60;;;3.72;;
64099;SDS011;50385;61.766;38.054;2023-07-13T12:03:05;14.25;;;3.47;;
64099;SDS011;50385;61.766;38.054;2023-07-13T12:05:32;10.90;;;3.63;;
64099;SDS011;50385;61.766;38.054;2023-07-13T12:08:00;5.63;;;3.53;;
64099;SDS011;50385;61.766;38.054;2023-07-13T12:10:37;8.75;;;4.10;;
64099;SDS011;50385;61.766;38.054;2023-07-13T12:13:04;6.95;;;3.22;;
64099;SDS011;50385;61.766;38.054;2023-07-13T12:15:43;8.15;;;3.45;;
64099;SDS011;50385;61.766;38.054;2023-07-13T12:18:18;9.75;;;4.53;;
64099;SDS011;50385;61.766;38.054;2023-07-13T12:20:46;11.75;;;4.07;;
64099;SDS011;50385;61.766;38.054;2023-07-13T12:26:16;7.15;;;3.53;;
64099;SDS011;50385;61.766;38.054;2023-07-13T12:31:36;17.83;;;3.50;;
64099;SDS011;50385;61.766;38.054;2023-07-13T12:34:27;17.63;;;3.58;;
64099;SDS011;50385;61.766;38.054;2023-07-13T12:39:22;5.80;;;3.50;;
64099;SDS011;50385;61.766;38.054;2023-07-13T12:45:01;4.38;;;3.22;;
64099;SDS011;50385;61.766;38.054;2023-07-13T12:50:22;8.63;;;4.13;;
64099;SDS011;50385;61.766;38.054;2023-07-13T12:53:13;5.05;;;3.47;;
64099;SDS011;50385;61.766;38.054;2023-07-13T12:55:46;13.90;;;3.70;;
64099;SDS011;50385;61.766;38.054;2023-07-13T12:59:01;9.80;;;3.83;;
64099;SDS011;50385;61.766;38.054;2023-07-13T13:01:15;8.80;;;4.00;;
64099;SDS011;50385;61.766;38.054;2023-07-13T13:03:48;13.15;;;4.25;;
64099;SDS011;50385;61.766;38.054;2023-07-13T13:06:21;6.95;;;4.38;;
64099;SDS011;50385;61.766;38.054;2023-07-13T13:08:51;5.57;;;4.05;;
64099;SDS011;50385;61.766;38.054;2023-07-13T13:11:21;7.82;;;3.53;;
64099;SDS011;50385;61.766;38.054;2023-07-13T13:13:49;12.13;;;3.72;;
64099;SDS011;50385;61.766;38.054;2023-07-13T13:18:48;6.82;;;3.67;;
64099;SDS011;50385;61.766;38.054;2023-07-13T13:21:17;10.15;;;3.40;;
64099;SDS011;50385;61.766;38.054;2023-07-13T13:23:44;15.73;;;3.88;;
64099;SDS011;50385;61.766;38.054;2023-07-13T13:26:13;6.25;;;3.90;;
64099;SDS011;50385;61.766;38.054;2023-07-13T13:28:44;12.25;;;3.80;;
64099;SDS011;50385;61.766;38.054;2023-07-13T13:31:20;8.23;;;3.97;;
64099;SDS011;50385;61.766;38.054;2023-07-13T13:33:46;9.60;;;3.92;;
64099;SDS011;50385;61.766;38.054;2023-07-13T13:36:15;6.68;;;3.65;;
64099;SDS011;50385;61.766;38.054;2023-07-13T13:38:43;6.90;;;4.40;;
64099;SDS011;50385;61.766;38.054;2023-07-13T13:41:11;7.07;;;4.22;;
64099;SDS011;50385;61.766;38.054;2023-07-13T13:43:40;9.10;;;4.38;;
64099;SDS011;50385;61.766;38.054;2023-07-13T13:46:20;7.20;;;3.85;;
64099;SDS011;50385;61.766;38.054;2023-07-13T13:48:51;7.03;;;4.10;;
64099;SDS011;50385;61.766;38.054;2023-07-13T13:51:18;16.30;;;4.20;;
64099;SDS011;50385;61.766;38.054;2023-07-13T13:53:47;5.25;;;4.10;;
64099;SDS011;50385;61.766;38.054;2023-07-13T13:56:14;11.43;;;3.97;;
64099;SDS011;50385;61.766;38.054;2023-07-13T13:58:41;13.30;;;3.47;;
64099;SDS011;50385;61.766;38.054;2023-07-13T14:01:18;8.93;;;3.90;;
64099;SDS011;50385;61.766;38.054;2023-07-13T14:03:59;15.27;;;3.72;;
64099;SDS011;50385;61.766;38.054;2023-07-13T14:06:37;11.23;;;3.90;;
64099;SDS011;50385;61.766;38.054;2023-07-13T14:09:04;12.43;;;3.53;;
64099;SDS011;50385;61.766;38.054;2023-07-13T14:11:34;11.60;;;4.18;;
64099;SDS011;50385;61.766;38.054;2023-07-13T14:14:01;7.97;;;4.05;;
64099;SDS011;50385;61.766;38.054;2023-07-13T14:16:30;10.73;;;4.32;;
64099;SDS011;50385;61.766;38.054;2023-07-13T14:18:58;5.22;;;3.70;;
64099;SDS011;50385;61.766;38.054;2023-07-13T14:21:27;8.23;;;4.55;;
64099;SDS011;50385;61.766;38.054;2023-07-13T14:23:56;6.60;;;3.85;;
64099;SDS011;50385;61.766;38.054;2023-07-13T14:26:24;10.95;;;4.55;;
64099;SDS011;50385;61.766;38.054;2023-07-13T14:28:53;14.98;;;4.70;;
64099;SDS011;50385;61.766;38.054;2023-07-13T14:31:25;5.40;;;3.97;;
64099;SDS011;50385;61.766;38.054;2023-07-13T14:33:55;8.18;;;4.00;;
64099;SDS011;50385;61.766;38.054;2023-07-13T14:39:13;9.65;;;4.70;;
64099;SDS011;50385;61.766;38.054;2023-07-13T14:41:44;11.93;;;4.93;;
64099;SDS011;50385;61.766;38.054;2023-07-13T14:44:16;10.00;;;4.50;;
64099;SDS011;50385;61.766;38.054;2023-07-13T14:46:47;6.72;;;4.50;;
64099;SDS011;50385;61.766;38.054;2023-07-13T14:54:44;7.78;;;4.85;;
64099;SDS011;50385;61.766;38.054;2023-07-13T14:57:12;10.07;;;4.28;;
64099;SDS011;50385;61.766;38.054;2023-07-13T14:59:41;5.70;;;4.53;;
64099;SDS011;50385;61.766;38.054;2023-07-13T15:02:25;9.40;;;4.32;;
64099;SDS011;50385;61.766;38.054;2023-07-13T15:04:54;10.60;;;4.35;;
64099;SDS011;50385;61.766;38.054;2023-07-13T15:07:21;9.95;;;4.65;;
64099;SDS011;50385;61.766;38.054;2023-07-13T15:09:49;7.45;;;3.70;;
64099;SDS011;50385;61.766;38.054;2023-07-13T15:12:18;10.48;;;4.43;;
64099;SDS011;50385;61.766;38.054;2023-07-13T15:14:46;6.43;;;4.28;;
64099;SDS011;50385;61.766;38.054;2023-07-13T15:19:50;8.20;;;3.38;;
64099;SDS011;50385;61.766;38.054;2023-07-13T15:22:17;5.72;;;4.10;;
64099;SDS011;50385;61.766;38.054;2023-07-13T15:24:44;7.10;;;3.67;;
64099;SDS011;50385;61.766;38.054;2023-07-13T15:27:11;6.13;;;3.20;;
64099;SDS011;50385;61.766;38.054;2023-07-13T15:29:38;4.07;;;3.15;;
64099;SDS011;50385;61.766;38.054;2023-07-13T15:32:11;5.80;;;2.85;;
64099;SDS011;50385;61.766;38.054;2023-07-13T15:34:42;4.68;;;2.72;;
64099;SDS011;50385;61.766;38.054;2023-07-13T15:37:13;5.70;;;2.90;;
64099;SDS011;50385;61.766;38.054;2023-07-13T15:39:45;4.88;;;2.80;;
64099;SDS011;50385;61.766;38.054;2023-07-13T15:42:29;8.88;;;2.60;;
64099;SDS011;50385;61.766;38.054;2023-07-13T15:44:56;6.15;;;2.75;;
64099;SDS011;50385;61.766;38.054;2023-07-13T15:47:24;5.05;;;2.63;;
64099;SDS011;50385;61.766;38.054;2023-07-13T15:49:51;6.95;;;2.67;;
64099;SDS011;50385;61.766;38.054;2023-07-13T15:52:18;5.05;;;2.80;;
64099;SDS011;50385;61.766;38.054;2023-07-13T15:54:46;4.07;;;2.97;;
64099;SDS011;50385;61.766;38.054;2023-07-13T15:57:14;8.20;;;2.60;;
64099;SDS011;50385;61.766;38.054;2023-07-13T15:59:47;5.82;;;2.50;;
64099;SDS011;50385;61.766;38.054;2023-07-13T16:02:18;3.13;;;2.20;;
64099;SDS011;50385;61.766;38.054;2023-07-13T16:04:49;5.95;;;2.55;;
64099;SDS011;50385;61.766;38.054;2023-07-13T16:07:19;4.00;;;2.20;;
64099;SDS011;50385;61.766;38.054;2023-07-13T16:09:47;3.20;;;2.03;;
64099;SDS011;50385;61.766;38.054;2023-07-13T16:12:16;2.20;;;2.00;;
64099;SDS011;50385;61.766;38.054;2023-07-13T16:14:43;2.67;;;1.80;;
64099;SDS011;50385;61.766;38.054;2023-07-13T16:17:11;3.10;;;1.98;;
64099;SDS011;50385;61.766;38.054;2023-07-13T16:19:38;5.30;;;1.90;;
64099;SDS011;50385;61.766;38.054;2023-07-13T16:22:05;3.55;;;2.15;;
64099;SDS011;50385;61.766;38.054;2023-07-13T16:24:40;2.33;;;2.00;;
64099;SDS011;50385;61.766;38.054;2023-07-13T16:27:08;3.67;;;1.90;;
64099;SDS011;50385;61.766;38.054;2023-07-13T16:29:35;20.55;;;8.80;;
64099;SDS011;50385;61.766;38.054;2023-07-13T16:32:06;9.13;;;5.78;;
64099;SDS011;50385;61.766;38.054;2023-07-13T16:34:43;3.90;;;1.90;;
64099;SDS011;50385;61.766;38.054;2023-07-13T16:37:18;3.40;;;1.80;;
64099;SDS011;50385;61.766;38.054;2023-07-13T16:40:19;4.10;;;1.80;;
64099;SDS011;50385;61.766;38.054;2023-07-13T16:42:50;3.35;;;2.03;;
64099;SDS011;50385;61.766;38.054;2023-07-13T16:45:25;1.45;;;1.35;;
64099;SDS011;50385;61.766;38.054;2023-07-13T16:47:56;5.47;;;1.65;;
64099;SDS011;50385;61.766;38.054;2023-07-13T16:50:25;2.38;;;1.90;;
64099;SDS011;50385;61.766;38.054;2023-07-13T16:52:58;1.88;;;1.52;;
64099;SDS011;50385;61.766;38.054;2023-07-13T16:55:26;6.50;;;2.40;;
64099;SDS011;50385;61.766;38.054;2023-07-13T16:57:58;2.30;;;1.50;;
64099;SDS011;50385;61.766;38.054;2023-07-13T17:00:28;2.25;;;1.67;;
64099;SDS011;50385;61.766;38.054;2023-07-13T17:02:57;1.48;;;1.33;;
64099;SDS011;50385;61.766;38.054;2023-07-13T17:05:29;2.05;;;1.50;;
64099;SDS011;50385;61.766;38.054;2023-07-13T17:07:57;2.20;;;1.55;;
64099;SDS011;50385;61.766;38.054;2023-07-13T17:10:25;14.93;;;1.95;;
64099;SDS011;50385;61.766;38.054;2023-07-13T17:12:53;2.85;;;1.75;;
64099;SDS011;50385;61.766;38.054;2023-07-13T17:15:24;3.97;;;1.75;;
64099;SDS011;50385;61.766;38.054;2023-07-13T17:17:56;3.08;;;1.90;;
64099;SDS011;50385;61.766;38.054;2023-07-13T17:20:35;2.95;;;1.58;;
64099;SDS011;50385;61.766;38.054;2023-07-13T17:23:26;2.22;;;1.70;;
64099;SDS011;50385;61.766;38.054;2023-07-13T17:25:53;5.15;;;1.70;;
64099;SDS011;50385;61.766;38.054;2023-07-13T17:28:21;2.35;;;1.40;;
64099;SDS011;50385;61.766;38.054;2023-07-13T17:30:49;4.40;;;1.67;;
64099;SDS011;50385;61.766;38.054;2023-07-13T17:33:31;2.75;;;1.73;;
64099;SDS011;50385;61.766;38.054;2023-07-13T17:36:00;1.67;;;1.58;;
64099;SDS011;50385;61.766;38.054;2023-07-13T17:38:34;2.55;;;1.55;;
64099;SDS011;50385;61.766;38.054;2023-07-13T17:41:07;5.97;;;1.83;;
64099;SDS011;50385;61.766;38.054;2023-07-13T17:43:36;2.53;;;1.85;;
64099;SDS011;50385;61.766;38.054;2023-07-13T17:46:14;2.10;;;1.52;;
64099;SDS011;50385;61.766;38.054;2023-07-13T17:48:43;7.47;;;1.67;;
64099;SDS011;50385;61.766;38.054;2023-07-13T17:51:14;4.95;;;1.70;;
64099;SDS011;50385;61.766;38.054;2023-07-13T17:53:42;1.90;;;1.45;;
64099;SDS011;50385;61.766;38.054;2023-07-13T17:56:10;3.85;;;1.83;;
64099;SDS011;50385;61.766;38.054;2023-07-13T17:58:39;1.98;;;1.58;;
64099;SDS011;50385;61.766;38.054;2023-07-13T18:01:12;3.75;;;1.52;;
64099;SDS011;50385;61.766;38.054;2023-07-13T18:03:40;2.35;;;1.40;;
64099;SDS011;50385;61.766;38.054;2023-07-13T18:06:17;2.45;;;1.65;;
64099;SDS011;50385;61.766;38.054;2023-07-13T18:11:56;2.28;;;2.05;;
64099;SDS011;50385;61.766;38.054;2023-07-13T18:14:24;2.80;;;1.60;;
64099;SDS011;50385;61.766;38.054;2023-07-13T18:16:54;2.28;;;1.50;;
64099;SDS011;50385;61.766;38.054;2023-07-13T18:19:32;2.15;;;1.58;;
64099;SDS011;50385;61.766;38.054;2023-07-13T18:22:11;3.28;;;1.75;;
64099;SDS011;50385;61.766;38.054;2023-07-13T18:24:43;2.25;;;1.60;;
64099;SDS011;50385;61.766;38.054;2023-07-13T18:27:10;4.43;;;1.48;;
64099;SDS011;50385;61.766;38.054;2023-07-13T18:29:38;6.95;;;1.52;;
64099;SDS011;50385;61.766;38.054;2023-07-13T18:32:05;1.52;;;1.42;;
64099;SDS011;50385;61.766;38.054;2023-07-13T18:34:39;2.00;;;1.67;;
64099;SDS011;50385;61.766;38.054;2023-07-13T18:37:19;1.65;;;1.48;;
64099;SDS011;50385;61.766;38.054;2023-07-13T18:39:48;1.50;;;1.40;;
64099;SDS011;50385;61.766;38.054;2023-07-13T18:42:20;2.13;;;1.83;;
64099;SDS011;50385;61.766;38.054;2023-07-13T18:44:48;1.88;;;1.67;;
64099;SDS011;50385;61.766;38.054;2023-07-13T18:47:17;4.28;;;1.65;;
64099;SDS011;50385;61.766;38.054;2023-07-13T18:49:49;2.65;;;2.00;;
64099;SDS011;50385;61.766;38.054;2023-07-13T18:52:20;2.30;;;2.10;;
64099;SDS011;50385;61.766;38.054;2023-07-13T18:54:47;3.15;;;2.10;;
64099;SDS011;50385;61.766;38.054;2023-07-13T18:57:14;2.35;;;1.70;;
64099;SDS011;50385;61.766;38.054;2023-07-13T18:59:42;2.25;;;1.67;;
64099;SDS011;50385;61.766;38.054;2023-07-13T19:02:12;3.00;;;1.75;;
64099;SDS011;50385;61.766;38.054;2023-07-13T19:04:40;2.33;;;2.03;;
64099;SDS011;50385;61.766;38.054;2023-07-13T19:07:08;5.00;;;2.13;;
64099;SDS011;50385;61.766;38.054;2023-07-13T19:09:39;3.78;;;1.88;;
64099;SDS011;50385;61.766;38.054;2023-07-13T19:12:14;2.58;;;1.88;;
64099;SDS011;50385;61.766;38.054;2023-07-13T19:14:55;2.17;;;1.90;;
64099;SDS011;50385;61.766;38.054;2023-07-13T19:17:22;3.75;;;2.03;;
64099;SDS011;50385;61.766;38.054;2023-07-13T19:19:49;4.90;;;2.10;;
64099;SDS011;50385;61.766;38.054;2023-07-13T19:22:18;4.15;;;1.95;;
64099;SDS011;50385;61.766;38.054;2023-07-13T19:24:46;2.47;;;2.05;;
64099;SDS011;50385;61.766;38.054;2023-07-13T19:27:15;4.07;;;2.10;;
64099;SDS011;50385;61.766;38.054;2023-07-13T19:29:42;3.25;;;1.98;;
64099;SDS011;50385;61.766;38.054;2023-07-13T19:32:09;2.53;;;1.92;;
64099;SDS011;50385;61.766;38.054;2023-07-13T19:34:37;2.30;;;1.98;;
64099;SDS011;50385;61.766;38.054;2023-07-13T19:37:22;2.20;;;2.00;;
64099;SDS011;50385;61.766;38.054;2023-07-13T19:39:51;3.15;;;1.90;;
64099;SDS011;50385;61.766;38.054;2023-07-13T19:42:23;5.03;;;1.60;;
64099;SDS011;50385;61.766;38.054;2023-07-13T19:44:51;4.20;;;2.22;;
64099;SDS011;50385;61.766;38.054;2023-07-13T19:47:21;1.70;;;1.60;;
64099;SDS011;50385;61.766;38.054;2023-07-13T19:49:50;2.53;;;1.77;;
64099;SDS011;50385;61.766;38.054;2023-07-13T19:52:18;3.63;;;1.85;;